createdAt,value
2023-04-22T00:01:31.322Z,6.13
2023-04-22T00:03:58.134Z,5.57
2023-04-22T00:06:25.101Z,5.78
2023-04-22T00:08:51.671Z,5.68
2023-04-22T00:11:18.218Z,5.47
2023-04-22T00:13:44.856Z,5.72
2023-04-22T00:16:11.678Z,6.13
2023-04-22T00:18:39.747Z,5.68
2023-04-22T00:21:06.564Z,5.47
2023-04-22T00:23:33.579Z,5.97
2023-04-22T00:29:28.654Z,6.28
2023-04-22T00:31:55.304Z,6.35
2023-04-22T00:34:23.375Z,6.07
2023-04-22T00:36:50.215Z,5.65
2023-04-22T00:39:16.977Z,6.00
2023-04-22T00:41:43.664Z,5.38
2023-04-22T00:44:11.244Z,5.88
2023-04-22T00:46:38.258Z,5.72
2023-04-22T00:49:05.664Z,5.35
2023-04-22T00:51:34.091Z,5.70
2023-04-22T00:54:00.755Z,6.13
2023-04-22T00:56:28.029Z,5.85
2023-04-22T00:58:55.068Z,6.07
2023-04-22T01:01:22.916Z,5.50
2023-04-22T01:03:50.570Z,5.90
2023-04-22T01:06:19.147Z,5.20
2023-04-22T01:08:47.744Z,4.97
2023-04-22T01:11:14.692Z,5.80
2023-04-22T01:13:41.613Z,5.57
2023-04-22T01:16:09.887Z,6.00
2023-04-22T01:18:36.855Z,5.88
2023-04-22T01:21:04.091Z,6.05
2023-04-22T01:23:32.691Z,6.10
2023-04-22T01:25:59.925Z,5.53
2023-04-22T01:28:26.622Z,5.78
2023-04-22T01:30:53.652Z,5.90
2023-04-22T01:33:20.257Z,7.15
2023-04-22T01:35:46.913Z,6.53
2023-04-22T01:38:14.014Z,6.13
2023-04-22T01:40:42.112Z,6.15
2023-04-22T01:43:08.713Z,6.18
2023-04-22T01:45:35.404Z,6.35
2023-04-22T01:48:02.187Z,6.38
2023-04-22T01:50:28.936Z,6.28
2023-04-22T01:52:56.004Z,5.68
2023-04-22T01:55:22.721Z,5.90
2023-04-22T01:57:50.792Z,6.20
2023-04-22T02:00:17.899Z,6.07
2023-04-22T02:02:44.755Z,6.25
2023-04-22T02:05:11.507Z,6.50
2023-04-22T02:07:38.159Z,5.72
2023-04-22T02:10:05.936Z,6.28
2023-04-22T02:12:32.502Z,6.32
2023-04-22T02:15:00.678Z,5.72
2023-04-22T02:17:27.299Z,6.35
2023-04-22T02:19:53.992Z,6.15
2023-04-22T02:22:21.887Z,6.70
2023-04-22T02:24:48.665Z,7.03
2023-04-22T02:27:15.231Z,6.63
2023-04-22T02:29:42.131Z,5.95
2023-04-22T02:32:10.291Z,6.75
2023-04-22T02:34:36.867Z,5.80
2023-04-22T02:37:03.507Z,6.00
2023-04-22T02:39:30.150Z,6.45
2023-04-22T02:41:56.814Z,6.25
2023-04-22T02:44:23.415Z,6.38
2023-04-22T02:46:50.135Z,6.43
2023-04-22T02:49:18.129Z,6.63
2023-04-22T02:51:44.791Z,6.55
2023-04-22T02:54:11.355Z,6.03
2023-04-22T02:56:38.045Z,6.57
2023-04-22T02:59:04.707Z,6.65
2023-04-22T03:01:31.613Z,6.80
2023-04-22T03:03:58.465Z,7.00
2023-04-22T03:06:26.562Z,6.10
2023-04-22T03:08:53.231Z,6.47
2023-04-22T03:11:19.846Z,6.68
2023-04-22T03:13:46.530Z,7.22
2023-04-22T03:16:13.205Z,6.82
2023-04-22T03:18:39.953Z,6.35
2023-04-22T03:21:07.386Z,5.97
2023-04-22T03:23:35.607Z,5.97
2023-04-22T03:26:02.323Z,6.57
2023-04-22T03:28:28.933Z,6.40
2023-04-22T03:30:55.581Z,6.47
2023-04-22T03:33:22.195Z,6.82
2023-04-22T03:35:48.969Z,6.10
2023-04-22T03:38:16.006Z,5.63
2023-04-22T03:40:43.992Z,6.38
2023-04-22T03:43:10.555Z,7.00
2023-04-22T03:45:37.254Z,7.07
2023-04-22T03:48:04.211Z,6.88
2023-04-22T03:50:31.197Z,6.50
2023-04-22T03:52:57.907Z,7.18
2023-04-22T03:55:24.479Z,7.00
2023-04-22T03:57:52.401Z,6.82
2023-04-22T04:00:19.091Z,6.68
2023-04-22T04:02:45.822Z,6.47
2023-04-22T04:05:12.893Z,6.55
2023-04-22T04:07:39.709Z,6.78
2023-04-22T04:10:07.666Z,7.93
2023-04-22T04:12:34.269Z,6.68
2023-04-22T04:15:02.246Z,6.50
2023-04-22T04:17:28.963Z,6.63
2023-04-22T04:19:55.601Z,6.43
2023-04-22T04:22:22.185Z,6.43
2023-04-22T04:24:48.852Z,6.80
2023-04-22T04:27:15.690Z,6.35
2023-04-22T04:29:42.538Z,7.15
2023-04-22T04:32:10.710Z,6.50
2023-04-22T04:34:37.568Z,6.57
2023-04-22T04:37:04.272Z,6.50
2023-04-22T04:39:30.985Z,6.18
2023-04-22T04:41:57.570Z,7.20
2023-04-22T04:44:24.467Z,5.95
2023-04-22T04:46:51.082Z,6.28
2023-04-22T04:49:19.080Z,6.68
2023-04-22T04:51:45.710Z,7.07
2023-04-22T04:54:12.363Z,6.60
2023-04-22T04:56:38.991Z,6.43
2023-04-22T04:59:05.656Z,6.50
2023-04-22T05:01:32.311Z,7.13
2023-04-22T05:03:59.009Z,6.45
2023-04-22T05:06:27.100Z,6.88
2023-04-22T05:08:53.713Z,7.63
2023-04-22T05:11:20.353Z,6.53
2023-04-22T05:13:46.942Z,6.63
2023-04-22T05:16:13.654Z,7.03
2023-04-22T05:18:40.358Z,6.20
2023-04-22T05:21:06.960Z,6.57
2023-04-22T05:23:35.086Z,6.93
2023-04-22T05:26:01.721Z,6.82
2023-04-22T05:28:28.466Z,6.88
2023-04-22T05:30:55.027Z,7.07
2023-04-22T05:33:21.601Z,6.45
2023-04-22T05:35:48.314Z,6.43
2023-04-22T05:38:15.510Z,7.53
2023-04-22T05:40:43.481Z,7.38
2023-04-22T05:43:10.153Z,7.30
2023-04-22T05:45:36.827Z,6.60
2023-04-22T05:48:03.801Z,6.40
2023-04-22T05:50:30.543Z,7.47
2023-04-22T05:52:57.381Z,7.18
2023-04-22T05:55:24.116Z,7.00
2023-04-22T05:57:52.065Z,6.88
2023-04-22T06:00:19.154Z,7.78
2023-04-22T06:02:45.943Z,7.38
2023-04-22T06:05:13.058Z,7.88
2023-04-22T06:07:40.291Z,7.50
2023-04-22T06:10:08.658Z,7.60
2023-04-22T06:12:35.673Z,6.97
2023-04-22T06:15:04.322Z,7.57
2023-04-22T06:17:30.997Z,7.18
2023-04-22T06:19:57.710Z,7.85
2023-04-22T06:22:24.426Z,7.85
2023-04-22T06:24:51.155Z,7.82
2023-04-22T06:27:17.740Z,7.47
2023-04-22T06:29:44.497Z,7.35
2023-04-22T06:32:12.519Z,7.25
2023-04-22T06:34:39.157Z,7.13
2023-04-22T06:37:06.038Z,8.00
2023-04-22T06:39:32.608Z,7.60
2023-04-22T06:41:59.241Z,7.70
2023-04-22T06:44:25.892Z,7.50
2023-04-22T06:46:53.035Z,7.68
2023-04-22T06:49:21.721Z,7.43
2023-04-22T06:51:48.322Z,8.05
2023-04-22T06:54:14.986Z,7.05
2023-04-22T06:56:41.887Z,7.53
2023-04-22T06:59:08.542Z,6.90
2023-04-22T07:01:35.236Z,7.28
2023-04-22T07:04:01.973Z,7.32
2023-04-22T07:06:30.006Z,7.78
2023-04-22T07:08:56.640Z,7.65
2023-04-22T07:11:23.476Z,6.88
2023-04-22T07:13:50.093Z,7.40
2023-04-22T07:16:16.737Z,7.57
2023-04-22T07:18:43.479Z,7.70
2023-04-22T07:21:10.126Z,8.38
2023-04-22T07:23:38.100Z,7.75
2023-04-22T07:26:04.843Z,6.95
2023-04-22T07:28:31.507Z,7.43
2023-04-22T07:30:58.093Z,7.35
2023-04-22T07:33:24.627Z,7.38
2023-04-22T07:35:51.523Z,7.05
2023-04-22T07:38:18.110Z,7.57
2023-04-22T07:40:46.156Z,7.65
2023-04-22T07:43:12.906Z,7.55
2023-04-22T07:45:39.744Z,7.15
2023-04-22T07:48:06.347Z,7.38
2023-04-22T07:50:32.955Z,7.32
2023-04-22T07:52:59.540Z,7.43
2023-04-22T07:55:26.274Z,7.22
2023-04-22T07:57:54.736Z,7.28
2023-04-22T08:00:21.412Z,6.68
2023-04-22T08:02:48.072Z,7.13
2023-04-22T08:05:14.792Z,7.07
2023-04-22T08:07:41.932Z,7.07
2023-04-22T08:10:09.438Z,6.32
2023-04-22T08:12:35.995Z,7.30
2023-04-22T08:15:04.687Z,7.72
2023-04-22T08:17:31.290Z,7.18
2023-04-22T08:19:57.861Z,7.10
2023-04-22T08:22:24.554Z,6.35
2023-04-22T08:24:51.322Z,6.30
2023-04-22T08:27:18.029Z,6.88
2023-04-22T08:29:44.657Z,6.90
2023-04-22T08:32:12.684Z,6.88
2023-04-22T08:34:39.346Z,6.35
2023-04-22T08:37:06.072Z,6.55
2023-04-22T08:39:32.697Z,6.28
2023-04-22T08:41:59.455Z,6.57
2023-04-22T08:44:26.608Z,6.97
2023-04-22T08:46:54.436Z,6.55
2023-04-22T08:49:24.238Z,6.28
2023-04-22T08:51:50.874Z,6.82
2023-04-22T08:54:17.509Z,7.03
2023-04-22T08:56:45.291Z,5.72
2023-04-22T08:59:12.683Z,6.45
2023-04-22T09:01:41.136Z,6.13
2023-04-22T09:04:09.978Z,6.35
2023-04-22T09:06:38.751Z,6.43
2023-04-22T09:09:05.568Z,5.88
2023-04-22T09:11:33.317Z,5.45
2023-04-22T09:14:00.129Z,6.18
2023-04-22T09:16:26.784Z,5.65
2023-04-22T09:18:53.921Z,6.30
2023-04-22T09:21:20.604Z,6.55
2023-04-22T09:23:50.310Z,5.88
2023-04-22T09:26:19.351Z,5.57
2023-04-22T09:28:50.236Z,5.80
2023-04-22T09:31:16.963Z,6.30
2023-04-22T09:33:50.178Z,5.45
2023-04-22T09:38:53.727Z,5.75
2023-04-22T09:41:26.734Z,6.22
2023-04-22T09:43:55.331Z,4.68
2023-04-22T09:46:22.857Z,4.78
2023-04-22T09:48:50.390Z,4.95
2023-04-22T09:51:17.710Z,5.18
2023-04-22T09:53:44.634Z,5.65
2023-04-22T09:56:12.743Z,5.90
2023-04-22T09:58:39.994Z,5.25
2023-04-22T10:01:06.711Z,6.13
2023-04-22T10:03:33.473Z,5.50
2023-04-22T10:06:00.235Z,5.57
2023-04-22T10:08:26.976Z,5.80
2023-04-22T10:10:54.283Z,5.53
2023-04-22T10:13:22.605Z,5.25
2023-04-22T10:15:52.161Z,5.47
2023-04-22T10:18:22.883Z,5.60
2023-04-22T10:20:50.965Z,4.95
2023-04-22T10:23:20.146Z,5.38
2023-04-22T10:25:47.694Z,4.93
2023-04-22T10:28:16.145Z,5.07
2023-04-22T10:30:44.581Z,5.00
2023-04-22T10:33:36.645Z,5.22
2023-04-22T10:36:08.748Z,6.00
2023-04-22T10:38:35.827Z,4.97
2023-04-22T10:41:02.745Z,5.18
2023-04-22T10:43:41.531Z,5.35
2023-04-22T10:46:48.348Z,5.13
2023-04-22T10:49:19.505Z,5.15
2023-04-22T10:51:47.691Z,5.00
2023-04-22T10:54:47.737Z,4.65
2023-04-22T10:57:20.437Z,4.93
2023-04-22T10:59:50.474Z,5.15
2023-04-22T11:02:19.004Z,5.53
2023-04-22T11:04:50.133Z,4.88
2023-04-22T11:07:30.239Z,4.78
2023-04-22T11:10:00.614Z,4.97
2023-04-22T11:12:43.967Z,5.13
2023-04-22T11:15:13.382Z,5.00
2023-04-22T11:17:43.147Z,5.03
2023-04-22T11:20:12.612Z,4.78
2023-04-22T11:22:42.656Z,4.68
2023-04-22T11:25:10.027Z,4.63
2023-04-22T11:27:37.476Z,4.40
2023-04-22T11:30:06.945Z,4.47
2023-04-22T11:32:34.641Z,5.15
2023-04-22T11:35:03.946Z,4.75
2023-04-22T11:37:39.532Z,4.80
2023-04-22T11:40:27.772Z,5.00
2023-04-22T11:42:53.956Z,4.45
2023-04-22T11:45:20.719Z,4.25
2023-04-22T11:47:48.731Z,4.30
2023-04-22T11:50:15.633Z,4.63
2023-04-22T11:52:46.716Z,4.38
2023-04-22T11:55:13.625Z,4.78
2023-04-22T11:57:40.894Z,4.75
2023-04-22T12:00:12.473Z,4.80
2023-04-22T12:02:39.367Z,4.60
2023-04-22T12:05:10.146Z,4.63
2023-04-22T12:07:36.851Z,4.38
2023-04-22T12:10:07.277Z,4.60
2023-04-22T12:12:33.935Z,4.75
2023-04-22T12:15:07.643Z,5.05
2023-04-22T12:17:34.276Z,4.40
2023-04-22T12:20:00.963Z,4.63
2023-04-22T12:22:29.446Z,4.57
2023-04-22T12:25:01.534Z,4.68
2023-04-22T12:27:29.539Z,4.70
2023-04-22T12:29:57.111Z,4.55
2023-04-22T12:32:26.334Z,4.07
2023-04-22T12:34:53.423Z,4.30
2023-04-22T12:37:20.038Z,4.20
2023-04-22T12:39:46.708Z,4.40
2023-04-22T12:42:13.364Z,4.13
2023-04-22T12:44:41.390Z,4.57
2023-04-22T12:47:07.993Z,4.68
2023-04-22T12:49:34.637Z,4.32
2023-04-22T12:52:01.230Z,4.20
2023-04-22T12:54:27.816Z,4.78
2023-04-22T12:56:54.513Z,4.07
2023-04-22T12:59:21.165Z,4.03
2023-04-22T13:01:49.248Z,4.45
2023-04-22T13:04:18.211Z,4.03
2023-04-22T13:06:44.936Z,4.13
2023-04-22T13:09:11.637Z,4.05
2023-04-22T13:11:38.289Z,7.00
2023-04-22T13:14:04.904Z,4.40
2023-04-22T13:16:31.659Z,4.25
2023-04-22T13:18:59.859Z,4.18
2023-04-22T13:21:26.472Z,4.80
2023-04-22T13:23:53.049Z,5.03
2023-04-22T13:26:19.720Z,4.75
2023-04-22T13:28:46.318Z,5.15
2023-04-22T13:31:12.936Z,5.45
2023-04-22T13:33:39.501Z,4.65
2023-04-22T13:36:07.692Z,4.68
2023-04-22T13:38:34.372Z,4.85
2023-04-22T13:41:03.184Z,4.75
2023-04-22T13:43:29.977Z,4.82
2023-04-22T13:45:56.825Z,4.72
2023-04-22T13:48:23.482Z,5.25
2023-04-22T13:50:50.223Z,4.80
2023-04-22T13:53:19.252Z,5.03
2023-04-22T13:55:45.900Z,6.50
2023-04-22T13:58:12.473Z,4.97
2023-04-22T14:00:39.078Z,4.70
2023-04-22T14:03:05.956Z,5.40
2023-04-22T14:05:32.727Z,5.45
2023-04-22T14:07:59.621Z,5.20
2023-04-22T14:10:28.763Z,5.07
2023-04-22T14:12:55.620Z,4.65
2023-04-22T14:15:22.339Z,4.88
2023-04-22T14:17:49.084Z,5.75
2023-04-22T14:20:15.951Z,4.72
2023-04-22T14:22:42.646Z,4.30
2023-04-22T14:25:09.884Z,5.13
2023-04-22T14:27:38.141Z,5.13
2023-04-22T14:30:06.156Z,5.03
2023-04-22T14:32:32.851Z,4.78
2023-04-22T14:34:59.445Z,4.25
2023-04-22T14:37:26.317Z,4.50
2023-04-22T14:39:52.928Z,4.00
2023-04-22T14:42:19.630Z,4.60
2023-04-22T14:44:47.737Z,4.30
2023-04-22T14:47:14.434Z,4.10
2023-04-22T14:49:41.201Z,4.80
2023-04-22T14:52:08.308Z,5.00
2023-04-22T14:54:34.997Z,4.95
2023-04-22T14:57:01.618Z,4.70
2023-04-22T14:59:28.264Z,5.05
2023-04-22T15:01:56.855Z,4.80
2023-04-22T15:04:24.089Z,4.78
2023-04-22T15:06:50.836Z,4.88
2023-04-22T15:09:17.453Z,4.63
2023-04-22T15:11:44.041Z,4.43
2023-04-22T15:14:10.666Z,4.22
2023-04-22T15:16:37.388Z,4.88
2023-04-22T15:19:05.566Z,4.88
2023-04-22T15:21:32.249Z,4.25
2023-04-22T15:23:58.920Z,4.50
2023-04-22T15:26:25.542Z,4.72
2023-04-22T15:28:52.210Z,4.30
2023-04-22T15:31:21.306Z,4.50
2023-04-22T15:33:47.933Z,4.55
2023-04-22T15:36:15.989Z,4.38
2023-04-22T15:38:42.670Z,4.85
2023-04-22T15:41:09.362Z,4.38
2023-04-22T15:43:35.997Z,4.32
2023-04-22T15:46:02.612Z,4.68
2023-04-22T15:48:29.232Z,5.15
2023-04-22T15:50:55.929Z,4.80
2023-04-22T15:53:23.904Z,4.75
2023-04-22T15:55:50.700Z,6.20
2023-04-22T15:58:17.294Z,4.97
2023-04-22T16:00:44.036Z,4.85
2023-04-22T16:03:10.872Z,3.83
2023-04-22T16:05:37.572Z,4.03
2023-04-22T16:08:05.251Z,4.13
2023-04-22T16:10:33.309Z,4.07
2023-04-22T16:12:59.898Z,4.18
2023-04-22T16:15:26.651Z,3.88
2023-04-22T16:17:53.400Z,3.72
2023-04-22T16:20:20.110Z,4.00
2023-04-22T16:22:46.700Z,4.13
2023-04-22T16:25:13.372Z,4.20
2023-04-22T16:27:41.410Z,4.25
2023-04-22T16:30:08.921Z,4.43
2023-04-22T16:32:35.561Z,4.30
2023-04-22T16:35:02.505Z,4.03
2023-04-22T16:37:29.169Z,3.92
2023-04-22T16:40:03.686Z,3.83
2023-04-22T16:42:30.242Z,3.70
2023-04-22T16:44:58.176Z,3.50
2023-04-22T16:47:24.989Z,4.13
2023-04-22T16:49:51.611Z,4.28
2023-04-22T16:52:18.399Z,3.83
2023-04-22T16:54:45.096Z,4.43
2023-04-22T16:57:11.646Z,3.97
2023-04-22T16:59:38.716Z,4.10
2023-04-22T17:02:07.436Z,3.95
2023-04-22T17:04:34.198Z,3.65
2023-04-22T17:07:00.773Z,4.20
2023-04-22T17:09:27.435Z,3.80
2023-04-22T17:11:53.984Z,4.30
2023-04-22T17:14:20.534Z,4.47
2023-04-22T17:16:47.134Z,4.57
2023-04-22T17:19:15.047Z,4.55
2023-04-22T17:21:42.252Z,4.50
2023-04-22T17:24:08.906Z,4.45
2023-04-22T17:26:35.480Z,4.45
2023-04-22T17:29:01.999Z,4.63
2023-04-22T17:31:28.860Z,4.10
2023-04-22T17:33:55.437Z,4.55
2023-04-22T17:36:23.340Z,4.43
2023-04-22T17:38:49.965Z,5.07
2023-04-22T17:41:16.564Z,4.50
2023-04-22T17:43:43.117Z,4.50
2023-04-22T17:46:09.668Z,4.50
2023-04-22T17:48:36.155Z,4.57
2023-04-22T17:51:03.534Z,4.47
2023-04-22T17:53:31.451Z,4.85
2023-04-22T17:55:58.111Z,4.40
2023-04-22T17:58:24.729Z,4.82
2023-04-22T18:00:51.633Z,5.18
2023-04-22T18:03:18.564Z,5.50
2023-04-22T18:05:45.329Z,6.93
2023-04-22T18:08:12.187Z,7.60
2023-04-22T18:10:40.268Z,7.78
2023-04-22T18:13:09.737Z,7.90
2023-04-22T18:15:36.536Z,8.38
2023-04-22T18:18:03.634Z,7.68
2023-04-22T18:20:30.542Z,7.18
2023-04-22T18:22:57.298Z,7.28
2023-04-22T18:25:23.982Z,7.07
2023-04-22T18:27:52.338Z,7.93
2023-04-22T18:30:19.016Z,7.00
2023-04-22T18:32:46.012Z,6.60
2023-04-22T18:35:12.592Z,6.32
2023-04-22T18:37:39.131Z,6.60
2023-04-22T18:40:07.382Z,6.50
2023-04-22T18:42:34.145Z,5.85
2023-04-22T18:45:04.377Z,6.10
2023-04-22T18:47:31.529Z,8.02
2023-04-22T18:49:58.131Z,6.35
2023-04-22T18:52:25.015Z,6.47
2023-04-22T18:54:51.543Z,6.05
2023-04-22T18:57:18.199Z,6.38
2023-04-22T18:59:44.757Z,6.80
2023-04-22T19:02:13.370Z,7.85
2023-04-22T19:04:40.351Z,8.40
2023-04-22T19:07:07.268Z,9.32
2023-04-22T19:09:34.068Z,10.32
2023-04-22T19:12:00.822Z,12.45
2023-04-22T19:14:27.410Z,10.65
2023-04-22T19:16:53.969Z,12.10
2023-04-22T19:19:22.108Z,11.35
2023-04-22T19:21:48.755Z,10.07
2023-04-22T19:24:15.302Z,9.23
2023-04-22T19:26:41.885Z,9.07
2023-04-22T19:29:08.498Z,8.55
2023-04-22T19:31:35.129Z,9.32
2023-04-22T19:34:01.701Z,7.97
2023-04-22T19:36:29.709Z,9.95
2023-04-22T19:38:56.217Z,9.23
2023-04-22T19:41:22.800Z,9.25
2023-04-22T19:43:49.290Z,8.63
2023-04-22T19:46:16.014Z,8.57
2023-04-22T19:48:43.194Z,8.18
2023-04-22T19:51:10.398Z,7.93
2023-04-22T19:53:39.386Z,7.45
2023-04-22T19:56:06.188Z,7.70
2023-04-22T19:58:33.001Z,7.30
2023-04-22T20:00:59.901Z,7.32
2023-04-22T20:03:27.175Z,8.20
2023-04-22T20:05:54.500Z,7.63
2023-04-22T20:08:24.790Z,7.97
2023-04-22T20:10:53.080Z,6.75
2023-04-22T20:13:20.018Z,7.97
2023-04-22T20:15:47.258Z,8.20
2023-04-22T20:18:14.046Z,7.10
2023-04-22T20:20:42.339Z,7.95
2023-04-22T20:23:09.294Z,8.60
2023-04-22T20:25:38.326Z,7.78
2023-04-22T20:28:06.713Z,9.68
2023-04-22T20:30:34.168Z,17.20
2023-04-22T20:33:00.961Z,26.02
2023-04-22T20:35:28.243Z,21.15
2023-04-22T20:37:58.423Z,24.98
2023-04-22T20:40:25.581Z,26.40
2023-04-22T20:42:52.596Z,25.08
2023-04-22T20:45:20.519Z,23.33
2023-04-22T20:47:47.147Z,21.55
2023-04-22T20:50:13.992Z,22.20
2023-04-22T20:52:40.540Z,18.65
2023-04-22T20:55:07.502Z,16.30
2023-04-22T20:57:34.068Z,15.55
2023-04-22T21:00:00.826Z,12.82
2023-04-22T21:02:29.404Z,13.80
2023-04-22T21:04:57.136Z,12.90
2023-04-22T21:07:23.841Z,13.52
2023-04-22T21:09:50.733Z,12.20
2023-04-22T21:12:18.433Z,13.35
2023-04-22T21:14:45.610Z,11.45
2023-04-22T21:17:18.989Z,10.05
2023-04-22T21:19:49.793Z,10.20
2023-04-22T21:22:20.404Z,10.05
2023-04-22T21:24:48.364Z,10.00
2023-04-22T21:27:16.391Z,9.23
2023-04-22T21:29:43.491Z,9.00
2023-04-22T21:32:10.224Z,8.45
2023-04-22T21:34:37.053Z,8.73
2023-04-22T21:37:06.082Z,8.85
2023-04-22T21:39:32.842Z,8.73
2023-04-22T21:42:01.008Z,8.15
2023-04-22T21:44:29.647Z,8.48
2023-04-22T21:46:56.273Z,8.52
2023-04-22T21:49:22.857Z,7.95
2023-04-22T21:51:49.484Z,8.23
2023-04-22T21:54:17.514Z,8.40
2023-04-22T21:56:44.148Z,7.65
2023-04-22T21:59:10.698Z,8.02
2023-04-22T22:01:37.287Z,7.20
2023-04-22T22:04:04.179Z,7.68
2023-04-22T22:06:30.986Z,7.70
2023-04-22T22:08:57.637Z,7.15
2023-04-22T22:11:30.993Z,8.35
2023-04-22T22:13:58.342Z,8.52
2023-04-22T22:16:25.206Z,7.95
2023-04-22T22:18:51.891Z,7.90
2023-04-22T22:21:18.538Z,8.45
2023-04-22T22:23:45.097Z,8.00
2023-04-22T22:26:11.767Z,7.97
2023-04-22T22:28:39.874Z,8.13
2023-04-22T22:31:06.546Z,8.30
2023-04-22T22:33:33.160Z,8.18
2023-04-22T22:35:59.806Z,8.07
2023-04-22T22:38:26.343Z,7.80
2023-04-22T22:40:52.839Z,8.13
2023-04-22T22:43:19.360Z,8.07
2023-04-22T22:45:47.519Z,8.07
2023-04-22T22:48:14.193Z,8.85
2023-04-22T22:50:40.905Z,7.53
2023-04-22T22:53:07.425Z,7.82
2023-04-22T22:55:34.066Z,7.45
2023-04-22T22:58:00.638Z,8.20
2023-04-22T23:00:27.350Z,8.10
2023-04-22T23:02:55.618Z,8.38
2023-04-22T23:05:22.416Z,8.13
2023-04-22T23:07:48.954Z,8.77
2023-04-22T23:10:15.539Z,8.55
2023-04-22T23:12:43.795Z,7.97
2023-04-22T23:15:11.282Z,8.15
2023-04-22T23:17:37.916Z,8.18
2023-04-22T23:20:07.593Z,7.78
2023-04-22T23:22:35.698Z,9.52
2023-04-22T23:25:02.851Z,8.27
2023-04-22T23:27:30.318Z,8.05
2023-04-22T23:29:57.446Z,8.15
2023-04-22T23:32:25.057Z,10.23
2023-04-22T23:34:53.706Z,8.30
2023-04-22T23:37:25.971Z,8.60
2023-04-22T23:39:52.543Z,8.60
2023-04-22T23:42:19.119Z,8.52
2023-04-22T23:44:45.637Z,8.35
2023-04-22T23:47:12.233Z,8.98
2023-04-22T23:49:38.823Z,8.35
2023-04-22T23:52:05.483Z,7.80
2023-04-22T23:54:34.060Z,8.07
2023-04-22T23:57:01.113Z,8.70
2023-04-22T23:59:28.156Z,9.00
